Aeroporto :
LOGIN :

Iscrizione | Disclaimer

   EN    FR    IT 

 










Sommario :    VFR   VFR Marginale   IFR   IFR Intensivo   IFR Molto Intensivo
Visibilità : 
Base nubi : 
>= 8 km
>= 3000ft
5 / 8 km
1000 / 3000 ft
1500m / 5 km
500 / 1000 ft
800 / 1500m
200 / 500 ft
< 800m
< 200 ft
Simboli :   Temporali  Nebbia  Neve Forte  Precipitazioni Forti  Vento > 20 kt
SIGMETs :   Varie  Temporali  Ghiacco  Turbolenza  Onda orograficha  Ceneri Vulcaniche






- Altitudine del aeroporto : 249 ft


EGOS - RAF Shawbury

ULTIMO METAR :
  • 022120Z 32002KT 9999 BKN040 13/10 Q1014 NOSIG RMK BLU BLU

METARs OBSOLETI :
  • 022050Z 35007KT CAVOK 13/10 Q1014 NOSIG RMK BLU BLU
  • 022020Z 35007KT CAVOK 13/09 Q1014 NOSIG RMK BLU BLU
  • 021950Z 34007KT 9999 FEW035 SCT060 14/10 Q1014 NOSIG RMK BLU BLU
  • 021920Z 34008KT 9999 FEW035 BKN060 14/10 Q1014 NOSIG RMK BLU BLU
  • 021850Z 34009KT 9999 FEW035 SCT050 15/10 Q1013 NOSIG RMK BLU BLU
  • 021821Z 34011KT 9999 FEW035 BKN200 16/11 Q1013 NOSIG RMK BLU BLU

TAF TAF EGOS
Valido dal 02 a 21 ore il 03 a 02 ore UTC


021945Z 0221/0302 36006KT 9999 FEW040



MetMap, La meteo Aeronautica in un colpo d'occhio ! - Copyright ORBIFLY Dicembre 2007 - Disclaimer

ORBIFLY MET'MAP TEAM :

Programmazione e sviluppo : Alexandra Zaïnal
Concezione : Baudouin d'Aumeries
Aiuto per la programmazione : Marc-Olivier Méhu
Supporto tecnico e logistico : Manuel Goepfert
Aiuto per la traduzione : Arnaldo La Scala

Contatto : metmap@orbifly.com




FONTI E CREDITI :

   NOAA